createdAt,value
2022-12-28T00:01:25.254Z,99662.53
2022-12-28T00:03:52.710Z,99654.88
2022-12-28T00:06:21.428Z,99657.41
2022-12-28T00:08:48.291Z,99664.09
2022-12-28T00:11:26.512Z,99656.13
2022-12-28T00:13:58.579Z,99651.59
2022-12-28T00:16:28.496Z,99649.19
2022-12-28T00:18:56.266Z,99641.22
2022-12-28T00:21:23.137Z,99637.47
2022-12-28T00:23:51.198Z,99636.72
2022-12-28T00:26:19.519Z,99635.78
2022-12-28T00:28:46.519Z,99638.31
2022-12-28T00:31:13.962Z,99633.81
2022-12-28T00:33:40.406Z,99627.69
2022-12-28T00:36:07.893Z,99626.78
2022-12-28T00:38:36.034Z,99631.59
2022-12-28T00:41:02.693Z,99631.13
2022-12-28T00:43:29.034Z,99631.25
2022-12-28T00:45:55.447Z,99637.44
2022-12-28T00:48:22.499Z,99635.53
2022-12-28T00:50:49.296Z,99633.03
2022-12-28T00:53:15.855Z,99628.50
2022-12-28T00:55:42.909Z,99630.28
2022-12-28T00:58:09.443Z,99632.00
2022-12-28T01:00:37.369Z,99635.53
2022-12-28T01:03:03.911Z,99637.03
2022-12-28T01:05:30.431Z,99624.97
2022-12-28T01:07:56.911Z,99628.22
2022-12-28T01:10:23.235Z,99622.88
2022-12-28T01:12:49.620Z,99619.22
2022-12-28T01:15:16.138Z,99612.59
2022-12-28T01:17:42.639Z,99604.53
2022-12-28T01:20:09.370Z,99604.44
2022-12-28T01:22:35.934Z,99601.81
2022-12-28T01:25:02.650Z,99587.03
2022-12-28T01:27:29.219Z,99589.19
2022-12-28T01:29:55.693Z,99596.03
2022-12-28T01:32:22.062Z,99602.00
2022-12-28T01:34:48.432Z,99592.69
2022-12-28T01:37:15.005Z,99591.53
2022-12-28T01:39:41.412Z,99584.63
2022-12-28T01:42:15.784Z,99592.78
2022-12-28T01:44:47.694Z,99585.03
2022-12-28T01:47:40.489Z,99582.28
2022-12-28T01:50:14.252Z,99564.06
2022-12-28T01:52:57.628Z,99566.38
2022-12-28T01:55:34.848Z,99556.72
2022-12-28T01:58:05.161Z,99554.00
2022-12-28T02:00:32.082Z,99551.59
2022-12-28T02:03:04.789Z,99550.44
2022-12-28T02:05:37.960Z,99539.88
2022-12-28T02:08:20.352Z,99537.25
2022-12-28T02:10:47.571Z,99530.44
2022-12-28T02:13:19.477Z,99534.84
2022-12-28T02:15:46.988Z,99522.97
2022-12-28T02:18:15.660Z,99529.38
2022-12-28T02:21:10.068Z,99532.00
2022-12-28T02:24:18.054Z,99521.59
2022-12-28T02:26:54.121Z,99519.63
2022-12-28T02:29:40.048Z,99520.25
2022-12-28T02:32:13.530Z,99519.13
2022-12-28T02:34:54.817Z,99514.78
2022-12-28T02:37:26.551Z,99519.53
2022-12-28T02:39:58.739Z,99513.03
2022-12-28T02:42:27.089Z,99508.00
2022-12-28T02:44:53.446Z,99512.06
2022-12-28T02:47:19.866Z,99508.06
2022-12-28T02:49:46.434Z,99505.13
2022-12-28T02:52:31.092Z,99511.00
2022-12-28T02:55:16.274Z,99505.41
2022-12-28T02:58:16.575Z,99502.50
2022-12-28T03:00:49.489Z,99502.28
2022-12-28T03:03:44.845Z,99500.81
2022-12-28T03:06:30.050Z,99502.16
2022-12-28T03:09:07.444Z,99502.06
2022-12-28T03:11:41.106Z,99500.69
2022-12-28T03:14:18.776Z,99500.31
2022-12-28T03:16:48.805Z,99497.16
2022-12-28T03:19:15.467Z,99497.28
2022-12-28T03:21:43.187Z,99503.00
2022-12-28T03:24:12.113Z,99495.06
2022-12-28T03:26:44.270Z,99487.81
2022-12-28T03:29:16.395Z,99487.19
2022-12-28T03:31:42.981Z,99483.81
2022-12-28T03:34:09.621Z,99483.81
2022-12-28T03:36:52.937Z,99483.28
2022-12-28T03:39:41.087Z,99473.72
2022-12-28T03:42:44.483Z,99465.19
2022-12-28T03:45:46.457Z,99468.56
2022-12-28T03:48:10.061Z,99460.09
2022-12-28T03:50:40.352Z,99465.41
2022-12-28T03:53:08.356Z,99459.34
2022-12-28T03:55:35.265Z,99460.47
2022-12-28T03:58:01.655Z,99460.59
2022-12-28T04:00:28.001Z,99456.81
2022-12-28T04:02:54.466Z,99450.38
2022-12-28T04:05:21.036Z,99460.03
2022-12-28T04:07:47.621Z,99458.75
2022-12-28T04:10:14.180Z,99454.34
2022-12-28T04:12:40.540Z,99458.03
2022-12-28T04:15:07.644Z,99456.81
2022-12-28T04:17:33.988Z,99458.25
2022-12-28T04:20:00.422Z,99449.63
2022-12-28T04:22:26.872Z,99446.31
2022-12-28T04:24:53.440Z,99453.34
2022-12-28T04:27:19.828Z,99443.13
2022-12-28T04:29:46.205Z,99434.63
2022-12-28T04:32:12.541Z,99430.13
2022-12-28T04:34:43.120Z,99435.38
2022-12-28T04:37:12.981Z,99438.44
2022-12-28T04:39:54.841Z,99429.59
2022-12-28T04:42:23.399Z,99417.31
2022-12-28T04:44:49.962Z,99415.94
2022-12-28T04:47:16.422Z,99405.31
2022-12-28T04:49:42.833Z,99409.38
2022-12-28T04:52:09.254Z,99407.50
2022-12-28T04:54:35.544Z,99399.75
2022-12-28T04:57:01.973Z,99400.59
2022-12-28T04:59:28.343Z,99398.56
2022-12-28T05:01:54.895Z,99405.84
2022-12-28T05:04:21.478Z,99405.59
2022-12-28T05:06:47.901Z,99402.84
2022-12-28T05:09:14.226Z,99397.91
2022-12-28T05:11:40.712Z,99400.38
2022-12-28T05:14:07.040Z,99409.00
2022-12-28T05:16:33.685Z,99398.50
2022-12-28T05:19:00.281Z,99403.97
2022-12-28T05:21:28.366Z,99394.66
2022-12-28T05:23:56.024Z,99389.41
2022-12-28T05:26:25.656Z,99382.97
2022-12-28T05:28:52.529Z,99395.28
2022-12-28T05:31:21.431Z,99387.88
2022-12-28T05:33:47.887Z,99392.91
2022-12-28T05:36:26.397Z,99399.72
2022-12-28T05:38:53.544Z,99396.16
2022-12-28T05:41:25.376Z,99398.03
2022-12-28T05:43:52.337Z,99389.34
2022-12-28T05:46:21.928Z,99388.38
2022-12-28T05:48:48.687Z,99392.34
2022-12-28T05:51:20.116Z,99385.66
2022-12-28T05:53:47.822Z,99393.16
2022-12-28T05:56:17.174Z,99392.34
2022-12-28T05:58:45.115Z,99396.03
2022-12-28T06:01:15.520Z,99398.03
2022-12-28T06:03:42.689Z,99391.13
2022-12-28T06:06:14.590Z,99395.53
2022-12-28T06:08:42.175Z,99398.88
2022-12-28T06:11:11.412Z,99391.84
2022-12-28T06:13:38.731Z,99391.00
2022-12-28T06:16:14.050Z,99379.75
2022-12-28T06:18:41.079Z,99364.88
2022-12-28T06:21:24.235Z,99363.19
2022-12-28T06:23:51.649Z,99359.63
2022-12-28T06:26:20.786Z,99363.78
2022-12-28T06:28:48.268Z,99351.63
2022-12-28T06:31:20.300Z,99355.56
2022-12-28T06:33:47.974Z,99340.56
2022-12-28T06:36:21.008Z,99347.47
2022-12-28T06:38:48.946Z,99337.56
2022-12-28T06:41:17.415Z,99340.56
2022-12-28T06:43:45.325Z,99339.63
2022-12-28T06:46:13.550Z,99335.06
2022-12-28T06:48:40.293Z,99330.41
2022-12-28T06:51:15.603Z,99328.72
2022-12-28T06:53:42.555Z,99329.47
2022-12-28T06:56:15.054Z,99326.09
2022-12-28T06:58:42.412Z,99325.03
2022-12-28T07:01:18.035Z,99331.97
2022-12-28T07:03:46.140Z,99338.53
2022-12-28T07:06:14.071Z,99326.25
2022-12-28T07:08:40.473Z,99320.16
2022-12-28T07:11:14.081Z,99326.97
2022-12-28T07:13:41.029Z,99314.91
2022-12-28T07:16:13.874Z,99314.06
2022-12-28T07:18:41.288Z,99324.56
2022-12-28T07:21:11.698Z,99320.75
2022-12-28T07:23:38.314Z,99320.03
2022-12-28T07:26:09.194Z,99320.66
2022-12-28T07:28:38.997Z,99318.28
2022-12-28T07:31:07.118Z,99310.88
2022-12-28T07:33:35.439Z,99316.59
2022-12-28T07:36:02.555Z,99310.25
2022-12-28T07:38:29.101Z,99305.25
2022-12-28T07:41:03.815Z,99302.75
2022-12-28T07:43:30.789Z,99303.94
2022-12-28T07:46:02.673Z,99290.94
2022-12-28T07:48:33.366Z,99289.50
2022-12-28T07:51:17.575Z,99297.16
2022-12-28T07:53:46.135Z,99298.09
2022-12-28T07:56:14.140Z,99296.19
2022-12-28T08:01:13.958Z,99294.13
2022-12-28T08:03:41.647Z,99293.06
2022-12-28T08:06:10.834Z,99293.53
2022-12-28T08:08:42.997Z,99300.25
2022-12-28T08:11:12.336Z,99302.16
2022-12-28T08:13:40.865Z,99299.72
2022-12-28T08:16:08.300Z,99302.25
2022-12-28T08:18:34.802Z,99305.06
2022-12-28T08:21:03.852Z,99304.72
2022-12-28T08:23:31.738Z,99307.84
2022-12-28T08:26:12.599Z,99314.41
2022-12-28T08:28:40.305Z,99324.56
2022-12-28T08:31:13.083Z,99322.88
2022-12-28T08:33:39.821Z,99330.28
2022-12-28T08:36:07.540Z,99325.38
2022-12-28T08:38:34.103Z,99331.22
2022-12-28T08:41:02.553Z,99344.38
2022-12-28T08:43:29.965Z,99362.66
2022-12-28T08:46:00.879Z,99359.03
2022-12-28T08:48:27.543Z,99370.75
2022-12-28T08:50:54.664Z,99380.81
2022-12-28T08:53:22.496Z,99405.22
2022-12-28T08:55:48.876Z,99418.56
2022-12-28T08:58:15.312Z,99439.28
2022-12-28T09:00:41.709Z,99455.31
2022-12-28T09:03:08.300Z,99473.16
2022-12-28T09:05:39.774Z,99473.34
2022-12-28T09:08:06.545Z,99483.28
2022-12-28T09:10:33.135Z,99494.75
2022-12-28T09:12:59.735Z,99510.84
2022-12-28T09:15:26.194Z,99544.59
2022-12-28T09:17:52.854Z,99569.34
2022-12-28T09:20:19.200Z,99595.66
2022-12-28T09:22:45.725Z,99624.88
2022-12-28T09:25:12.190Z,99651.91
2022-12-28T09:27:38.762Z,99669.22
2022-12-28T09:30:05.775Z,99677.81
2022-12-28T09:32:32.600Z,99702.47
2022-12-28T09:34:59.428Z,99702.09
2022-12-28T09:37:26.221Z,99709.56
2022-12-28T09:39:55.581Z,99714.28
2022-12-28T09:42:29.178Z,99714.75
2022-12-28T09:45:11.686Z,99713.13
2022-12-28T09:47:47.245Z,99721.00
2022-12-28T09:50:26.713Z,99720.78
2022-12-28T09:53:15.194Z,99721.09
2022-12-28T09:55:48.832Z,99712.09
2022-12-28T09:58:16.910Z,99728.47
2022-12-28T10:00:48.888Z,99723.56
2022-12-28T10:03:35.612Z,99718.66
2022-12-28T10:06:03.188Z,99708.00
2022-12-28T10:08:29.953Z,99707.81
2022-12-28T10:11:01.794Z,99689.97
2022-12-28T10:13:54.015Z,99681.63
2022-12-28T10:16:23.388Z,99666.84
2022-12-28T10:18:50.381Z,99638.94
2022-12-28T10:21:25.374Z,99622.31
2022-12-28T10:24:29.693Z,99584.66
2022-12-28T10:26:46.989Z,99609.75
2022-12-28T10:29:20.140Z,99614.44
2022-12-28T10:31:59.481Z,99589.44
2022-12-28T10:34:26.190Z,99542.78
2022-12-28T10:36:54.920Z,99487.22
2022-12-28T10:39:30.171Z,99453.41
2022-12-28T10:41:59.705Z,99441.56
2022-12-28T10:44:42.058Z,99425.19
2022-12-28T10:47:32.824Z,99426.00
2022-12-28T10:52:56.330Z,99415.91
2022-12-28T10:55:31.512Z,99390.72
2022-12-28T10:58:30.289Z,99380.94
2022-12-28T11:01:00.473Z,99359.66
2022-12-28T11:03:30.510Z,99358.47
2022-12-28T11:06:15.477Z,99306.94
2022-12-28T11:08:43.660Z,99279.47
2022-12-28T11:11:22.432Z,99208.13
2022-12-28T11:13:57.840Z,99185.63
2022-12-28T11:16:24.553Z,99135.09
2022-12-28T11:18:51.440Z,99118.97
2022-12-28T11:21:21.457Z,99084.44
2022-12-28T11:23:50.450Z,99078.38
2022-12-28T11:26:17.514Z,99064.53
2022-12-28T11:28:45.833Z,99066.50
2022-12-28T11:31:21.898Z,99061.50
2022-12-28T11:34:01.183Z,99049.94
2022-12-28T11:36:28.681Z,99064.28
2022-12-28T11:38:56.585Z,99072.63
2022-12-28T11:41:33.269Z,99069.69
2022-12-28T11:44:02.115Z,99073.91
2022-12-28T11:46:39.101Z,99076.53
2022-12-28T11:49:26.411Z,99059.19
2022-12-28T11:52:15.007Z,99012.69
2022-12-28T11:55:21.474Z,99001.28
2022-12-28T11:57:48.265Z,99007.34
2022-12-28T12:00:22.186Z,98996.66
2022-12-28T12:02:50.727Z,98982.31
2022-12-28T12:05:50.746Z,98986.28
2022-12-28T12:08:17.248Z,98971.06
2022-12-28T12:10:48.720Z,98970.13
2022-12-28T12:13:47.784Z,98970.25
2022-12-28T12:16:26.702Z,98951.44
2022-12-28T12:18:57.537Z,98960.63
2022-12-28T12:21:26.811Z,98950.22
2022-12-28T12:23:58.784Z,98950.88
2022-12-28T12:26:27.961Z,98944.41
2022-12-28T12:29:00.734Z,98946.56
2022-12-28T12:31:43.559Z,98939.63
2022-12-28T12:34:28.511Z,98945.94
2022-12-28T12:37:16.555Z,98946.56
2022-12-28T12:39:55.219Z,98951.34
2022-12-28T12:42:49.032Z,98946.91
2022-12-28T12:45:38.407Z,98944.63
2022-12-28T12:48:15.007Z,98947.19
2022-12-28T12:50:56.886Z,98950.88
2022-12-28T12:53:48.031Z,98947.66
2022-12-28T12:56:24.199Z,98938.81
2022-12-28T12:59:28.047Z,98936.81
2022-12-28T13:02:08.651Z,98927.25
2022-12-28T13:04:36.000Z,98930.66
2022-12-28T13:07:05.385Z,98930.66
2022-12-28T13:09:34.721Z,98917.81
2022-12-28T13:12:02.450Z,98911.44
2022-12-28T13:14:29.934Z,98908.16
2022-12-28T13:16:59.078Z,98912.84
2022-12-28T13:19:27.746Z,98911.34
2022-12-28T13:21:54.964Z,98912.28
2022-12-28T13:24:31.430Z,98922.25
2022-12-28T13:26:59.784Z,98918.66
2022-12-28T13:29:39.533Z,98924.34
2022-12-28T13:32:06.057Z,98935.72
2022-12-28T13:34:33.954Z,98926.97
2022-12-28T13:37:02.461Z,98924.06
2022-12-28T13:39:34.212Z,98924.06
2022-12-28T13:42:16.033Z,98927.69
2022-12-28T13:44:57.469Z,98927.06
2022-12-28T13:47:30.945Z,98931.75
2022-12-28T13:50:00.008Z,98915.13
2022-12-28T13:52:32.737Z,98932.81
2022-12-28T13:55:05.456Z,98932.34
2022-12-28T13:57:55.711Z,98932.34
2022-12-28T14:00:22.856Z,98933.16
2022-12-28T14:02:51.804Z,98935.53
2022-12-28T14:05:21.894Z,98943.34
2022-12-28T14:07:50.652Z,98942.34
2022-12-28T14:10:18.437Z,98941.69
2022-12-28T14:12:46.083Z,98945.72
2022-12-28T14:15:13.720Z,98953.53
2022-12-28T14:17:40.836Z,98933.06
2022-12-28T14:20:08.164Z,98933.59
2022-12-28T14:22:37.519Z,98936.13
2022-12-28T14:25:06.728Z,98956.78
2022-12-28T14:27:38.116Z,98965.81
2022-12-28T14:30:06.858Z,98974.97
2022-12-28T14:35:25.122Z,98969.00
2022-12-28T14:37:57.872Z,98976.63
2022-12-28T14:40:28.727Z,98962.38
2022-12-28T14:42:55.721Z,98946.41
2022-12-28T14:45:36.005Z,98933.81
2022-12-28T14:48:38.699Z,98929.00
2022-12-28T14:51:17.311Z,98956.81
2022-12-28T14:53:45.101Z,98998.72
2022-12-28T14:59:03.316Z,98960.53
2022-12-28T15:01:41.483Z,98974.72
2022-12-28T15:04:07.998Z,98982.53
2022-12-28T15:06:34.936Z,98977.88
2022-12-28T15:09:01.426Z,98992.19
2022-12-28T15:11:29.316Z,99017.13
2022-12-28T15:13:57.827Z,99018.44
2022-12-28T15:16:24.518Z,98998.53
2022-12-28T15:18:51.712Z,98982.22
2022-12-28T15:21:21.107Z,98993.53
2022-12-28T15:23:52.593Z,98994.72
2022-12-28T15:26:20.048Z,98996.69
2022-12-28T15:29:06.498Z,99002.53
2022-12-28T15:31:33.009Z,99015.53
2022-12-28T15:33:59.391Z,99041.44
2022-12-28T15:36:25.853Z,99053.06
2022-12-28T15:38:55.193Z,99073.63
2022-12-28T15:41:22.151Z,99099.03
2022-12-28T15:43:49.115Z,99118.25
2022-12-28T15:46:15.556Z,99124.53
2022-12-28T15:48:47.565Z,99146.72
2022-12-28T15:51:14.409Z,99159.41
2022-12-28T15:53:40.947Z,99159.22
2022-12-28T15:56:07.700Z,99188.38
2022-12-28T15:58:34.155Z,99204.91
2022-12-28T16:01:00.599Z,99212.00
2022-12-28T16:03:27.012Z,99227.69
2022-12-28T16:05:59.011Z,99234.75
2022-12-28T16:08:25.403Z,99240.00
2022-12-28T16:10:51.946Z,99263.94
2022-12-28T16:13:18.445Z,99279.94
2022-12-28T16:15:44.874Z,99298.09
2022-12-28T16:18:11.311Z,99319.28
2022-12-28T16:20:37.726Z,99315.28
2022-12-28T16:23:04.118Z,99333.72
2022-12-28T16:25:30.440Z,99353.56
2022-12-28T16:27:56.898Z,99358.63
2022-12-28T16:30:23.928Z,99376.78
2022-12-28T16:32:50.297Z,99392.13
2022-12-28T16:35:16.764Z,99427.09
2022-12-28T16:37:43.440Z,99451.09
2022-12-28T16:40:10.659Z,99457.50
2022-12-28T16:42:37.157Z,99462.78
2022-12-28T16:45:03.798Z,99465.59
2022-12-28T16:47:30.473Z,99465.91
2022-12-28T16:49:57.030Z,99465.91
2022-12-28T16:52:23.387Z,99483.56
2022-12-28T16:54:49.772Z,99491.69
2022-12-28T16:57:16.367Z,99510.78
2022-12-28T16:59:42.932Z,99512.06
2022-12-28T17:02:12.540Z,99519.47
2022-12-28T17:04:39.137Z,99517.22
2022-12-28T17:07:05.671Z,99536.03
2022-12-28T17:09:32.122Z,99544.41
2022-12-28T17:11:58.579Z,99554.44
2022-12-28T17:14:36.878Z,99562.66
2022-12-28T17:17:05.739Z,99576.16
2022-12-28T17:19:32.273Z,99587.03
2022-12-28T17:21:58.735Z,99597.06
2022-12-28T17:24:25.368Z,99608.06
2022-12-28T17:26:51.802Z,99616.13
2022-12-28T17:29:18.332Z,99631.19
2022-12-28T17:31:44.771Z,99629.38
2022-12-28T17:34:11.376Z,99636.75
2022-12-28T17:36:38.008Z,99626.44
2022-12-28T17:39:04.780Z,99636.47
2022-12-28T17:41:31.722Z,99634.94
2022-12-28T17:44:00.251Z,99629.78
2022-12-28T17:46:29.670Z,99636.19
2022-12-28T17:48:57.892Z,99630.34
2022-12-28T17:51:24.945Z,99626.00
2022-12-28T17:53:53.775Z,99616.81
2022-12-28T17:56:20.313Z,99617.94
2022-12-28T17:58:47.050Z,99610.38
2022-12-28T18:01:13.924Z,99615.13
2022-12-28T18:03:40.574Z,99610.09
2022-12-28T18:06:07.473Z,99614.72
2022-12-28T18:08:33.940Z,99613.16
2022-12-28T18:11:00.602Z,99597.69
2022-12-28T18:13:26.978Z,99599.66
2022-12-28T18:15:53.449Z,99597.97
2022-12-28T18:18:19.807Z,99602.31
2022-12-28T18:21:02.244Z,99594.50
2022-12-28T18:23:29.916Z,99593.50
2022-12-28T18:26:04.286Z,99589.75
2022-12-28T18:28:32.141Z,99587.69
2022-12-28T18:31:02.049Z,99581.44
2022-12-28T18:33:29.636Z,99558.59
2022-12-28T18:35:55.932Z,99564.31
2022-12-28T18:38:22.755Z,99545.97
2022-12-28T18:40:53.704Z,99533.03
2022-12-28T18:43:20.311Z,99519.81
2022-12-28T18:45:53.287Z,99512.69
2022-12-28T18:48:19.850Z,99493.75
2022-12-28T18:51:00.105Z,99491.41
2022-12-28T18:53:28.642Z,99487.50
2022-12-28T18:56:03.414Z,99496.13
2022-12-28T18:58:32.133Z,99492.78
2022-12-28T19:01:05.868Z,99490.28
2022-12-28T19:03:32.503Z,99476.50
2022-12-28T19:06:03.225Z,99476.91
2022-12-28T19:08:34.287Z,99477.19
2022-12-28T19:11:01.682Z,99482.91
2022-12-28T19:13:32.408Z,99482.34
2022-12-28T19:15:58.788Z,99489.84
2022-12-28T19:18:25.373Z,99494.94
2022-12-28T19:20:59.008Z,99505.94
2022-12-28T19:23:25.552Z,99507.47
2022-12-28T19:25:52.039Z,99521.75
2022-12-28T19:28:18.549Z,99524.09
2022-12-28T19:30:45.434Z,99533.97
2022-12-28T19:33:11.955Z,99538.66
2022-12-28T19:35:38.364Z,99545.16
2022-12-28T19:38:05.090Z,99553.66
2022-12-28T19:40:31.640Z,99555.84
2022-12-28T19:42:58.065Z,99566.25
2022-12-28T19:45:24.711Z,99576.94
2022-12-28T19:47:51.048Z,99590.53
2022-12-28T19:50:17.484Z,99611.91
2022-12-28T19:52:44.053Z,99623.69
2022-12-28T19:55:10.475Z,99632.44
2022-12-28T19:57:37.013Z,99630.22
2022-12-28T20:00:04.219Z,99620.47
2022-12-28T20:02:30.918Z,99624.47
2022-12-28T20:04:57.412Z,99620.41
2022-12-28T20:07:23.722Z,98978.66
2022-12-28T20:09:50.624Z,98963.66
2022-12-28T20:12:17.558Z,98959.50
2022-12-28T20:14:44.005Z,98919.38
2022-12-28T20:17:10.510Z,98903.97
2022-12-28T20:19:36.953Z,98915.94
2022-12-28T20:22:03.465Z,98898.16
2022-12-28T20:24:29.862Z,98900.13
2022-12-28T20:27:01.324Z,98889.16
2022-12-28T20:29:28.332Z,98886.53
2022-12-28T20:31:54.733Z,98883.47
2022-12-28T20:34:21.233Z,98880.19
2022-12-28T20:36:47.664Z,98866.47
2022-12-28T20:39:14.080Z,98866.47
2022-12-28T20:41:40.793Z,98854.38
2022-12-28T20:44:16.605Z,98851.22
2022-12-28T20:46:44.051Z,98850.34
2022-12-28T20:49:11.253Z,98839.16
2022-12-28T20:51:37.866Z,98841.91
2022-12-28T20:54:04.728Z,98824.72
2022-12-28T20:56:31.227Z,98832.63
2022-12-28T20:58:58.473Z,98833.47
2022-12-28T21:01:24.902Z,98818.91
2022-12-28T21:03:51.671Z,98821.09
2022-12-28T21:06:18.139Z,98815.53
2022-12-28T21:08:44.531Z,98820.53
2022-12-28T21:11:11.223Z,98811.38
2022-12-28T21:13:43.776Z,98812.53
2022-12-28T21:16:12.159Z,98800.59
2022-12-28T21:18:38.820Z,98811.13
2022-12-28T21:21:05.762Z,98794.66
2022-12-28T21:23:32.860Z,98800.06
2022-12-28T21:26:05.682Z,98797.59
2022-12-28T21:28:33.236Z,98781.53
2022-12-28T21:30:59.770Z,98775.41
2022-12-28T21:33:27.146Z,98773.75
2022-12-28T21:36:00.776Z,98762.50
2022-12-28T21:38:28.251Z,98761.84
2022-12-28T21:41:00.506Z,98756.69
2022-12-28T21:43:27.683Z,98757.81
2022-12-28T21:46:06.744Z,98754.53
2022-12-28T21:48:35.423Z,98751.19
2022-12-28T21:51:13.253Z,98744.25
2022-12-28T21:53:39.870Z,98735.38
2022-12-28T21:56:06.435Z,98740.94
2022-12-28T21:58:32.755Z,98723.72
2022-12-28T22:00:59.284Z,98716.81
2022-12-28T22:03:26.057Z,98708.44
2022-12-28T22:05:52.505Z,98710.66
2022-12-28T22:08:19.020Z,98702.19
2022-12-28T22:10:45.534Z,98707.47
2022-12-28T22:13:11.857Z,98702.28
2022-12-28T22:15:38.520Z,98700.06
2022-12-28T22:18:07.379Z,98703.34
2022-12-28T22:20:36.402Z,98698.38
2022-12-28T22:23:04.107Z,98704.47
2022-12-28T22:25:31.394Z,98713.38
2022-12-28T22:27:58.242Z,98710.44
2022-12-28T22:30:24.855Z,98706.97
2022-12-28T22:32:51.481Z,98718.22
2022-12-28T22:35:18.232Z,98709.31
2022-12-28T22:37:44.693Z,98711.78
2022-12-28T22:40:11.776Z,98709.72
2022-12-28T22:42:42.601Z,98708.56
2022-12-28T22:45:14.088Z,98710.47
2022-12-28T22:47:40.941Z,98699.53
2022-12-28T22:50:10.700Z,98707.31
2022-12-28T22:52:37.284Z,98709.78
2022-12-28T22:55:04.368Z,98711.59
2022-12-28T22:57:31.072Z,98698.59
2022-12-28T22:59:57.667Z,98714.09
2022-12-28T23:02:24.470Z,98713.94
2022-12-28T23:04:51.619Z,98703.94
2022-12-28T23:07:18.477Z,98701.28
2022-12-28T23:09:45.011Z,98709.19
2022-12-28T23:12:11.350Z,98711.19
2022-12-28T23:14:42.724Z,98705.75
2022-12-28T23:17:12.456Z,98706.56
2022-12-28T23:19:39.345Z,98698.81
2022-12-28T23:22:07.079Z,98702.41
2022-12-28T23:24:33.526Z,98711.31
2022-12-28T23:27:00.220Z,98710.47
2022-12-28T23:29:30.479Z,98706.50
2022-12-28T23:31:57.581Z,98700.38
2022-12-28T23:34:24.173Z,98703.84
2022-12-28T23:36:50.779Z,98695.25
2022-12-28T23:39:17.314Z,98685.53
2022-12-28T23:41:44.006Z,98677.91
2022-12-28T23:44:10.498Z,98677.22
2022-12-28T23:46:36.993Z,98674.59
2022-12-28T23:49:03.676Z,98673.19
2022-12-28T23:51:30.181Z,98659.69
2022-12-28T23:53:56.684Z,98655.13
2022-12-28T23:56:23.018Z,98643.44
2022-12-28T23:58:50.092Z,98642.63
